sensor_id;sensor_type;location;lat;lon;timestamp;temperature;humidity
36442;DHT22;22470;50.824;16.284;2022-09-09T00:02:04;14.40;99.90
36442;DHT22;22470;50.824;16.284;2022-09-09T00:04:40;14.40;99.90
36442;DHT22;22470;50.824;16.284;2022-09-09T00:12:55;14.30;99.90
36442;DHT22;22470;50.824;16.284;2022-09-09T00:15:25;14.30;99.90
36442;DHT22;22470;50.824;16.284;2022-09-09T00:20:47;14.30;99.90
36442;DHT22;22470;50.824;16.284;2022-09-09T00:23:28;14.30;99.90
36442;DHT22;22470;50.824;16.284;2022-09-09T00:28:55;14.10;99.90
36442;DHT22;22470;50.824;16.284;2022-09-09T00:31:30;14.10;99.90
36442;DHT22;22470;50.824;16.284;2022-09-09T00:34:27;14.10;99.90
36442;DHT22;22470;50.824;16.284;2022-09-09T00:36:58;14.10;99.90
36442;DHT22;22470;50.824;16.284;2022-09-09T00:39:36;14.10;99.90
36442;DHT22;22470;50.824;16.284;2022-09-09T00:45:10;14.10;99.90
36442;DHT22;22470;50.824;16.284;2022-09-09T00:47:54;14.10;99.90
36442;DHT22;22470;50.824;16.284;2022-09-09T00:50:48;14.00;99.90
36442;DHT22;22470;50.824;16.284;2022-09-09T00:58:23;14.10;99.90
36442;DHT22;22470;50.824;16.284;2022-09-09T01:00:55;14.10;99.90
36442;DHT22;22470;50.824;16.284;2022-09-09T01:14:47;13.90;99.90
36442;DHT22;22470;50.824;16.284;2022-09-09T01:17:11;13.90;99.90
36442;DHT22;22470;50.824;16.284;2022-09-09T01:27:37;13.80;99.90
36442;DHT22;22470;50.824;16.284;2022-09-09T01:30:11;13.80;99.90
36442;DHT22;22470;50.824;16.284;2022-09-09T01:35:10;13.70;99.90
36442;DHT22;22470;50.824;16.284;2022-09-09T01:37:37;13.70;99.90
36442;DHT22;22470;50.824;16.284;2022-09-09T01:40:08;13.60;99.90
36442;DHT22;22470;50.824;16.284;2022-09-09T01:42:37;13.60;99.90
36442;DHT22;22470;50.824;16.284;2022-09-09T01:45:05;13.60;99.90
36442;DHT22;22470;50.824;16.284;2022-09-09T01:47:35;13.60;99.90
36442;DHT22;22470;50.824;16.284;2022-09-09T01:50:03;13.60;99.90
36442;DHT22;22470;50.824;16.284;2022-09-09T01:52:31;13.60;99.90
36442;DHT22;22470;50.824;16.284;2022-09-09T01:55:02;13.60;99.90
36442;DHT22;22470;50.824;16.284;2022-09-09T01:57:41;13.60;99.90
36442;DHT22;22470;50.824;16.284;2022-09-09T02:00:13;13.70;99.90
36442;DHT22;22470;50.824;16.284;2022-09-09T02:11:13;13.70;99.90
36442;DHT22;22470;50.824;16.284;2022-09-09T02:13:46;13.70;99.90
36442;DHT22;22470;50.824;16.284;2022-09-09T02:16:16;13.60;99.90
36442;DHT22;22470;50.824;16.284;2022-09-09T02:18:58;13.60;99.90
36442;DHT22;22470;50.824;16.284;2022-09-09T02:21:29;13.50;99.90
36442;DHT22;22470;50.824;16.284;2022-09-09T02:23:59;13.60;99.90
36442;DHT22;22470;50.824;16.284;2022-09-09T02:26:28;13.50;99.90
36442;DHT22;22470;50.824;16.284;2022-09-09T02:29:16;13.50;99.90
36442;DHT22;22470;50.824;16.284;2022-09-09T02:31:49;13.50;99.90
36442;DHT22;22470;50.824;16.284;2022-09-09T02:34:17;13.50;99.90
36442;DHT22;22470;50.824;16.284;2022-09-09T02:36:51;13.40;99.90
36442;DHT22;22470;50.824;16.284;2022-09-09T02:39:20;13.40;99.90
36442;DHT22;22470;50.824;16.284;2022-09-09T02:41:50;13.40;99.90
36442;DHT22;22470;50.824;16.284;2022-09-09T02:44:20;13.30;99.90
36442;DHT22;22470;50.824;16.284;2022-09-09T02:52:06;13.30;99.90
36442;DHT22;22470;50.824;16.284;2022-09-09T02:54:45;13.30;99.90
36442;DHT22;22470;50.824;16.284;2022-09-09T02:57:22;13.20;99.90
36442;DHT22;22470;50.824;16.284;2022-09-09T02:59:50;13.30;99.90
36442;DHT22;22470;50.824;16.284;2022-09-09T03:02:18;13.20;99.90
36442;DHT22;22470;50.824;16.284;2022-09-09T03:04:45;13.30;99.90
36442;DHT22;22470;50.824;16.284;2022-09-09T03:07:13;13.30;99.90
36442;DHT22;22470;50.824;16.284;2022-09-09T03:09:40;13.30;99.90
36442;DHT22;22470;50.824;16.284;2022-09-09T03:12:10;13.20;99.90
36442;DHT22;22470;50.824;16.284;2022-09-09T03:14:38;13.20;99.90
36442;DHT22;22470;50.824;16.284;2022-09-09T03:17:08;13.20;99.90
36442;DHT22;22470;50.824;16.284;2022-09-09T03:19:35;13.20;99.90
36442;DHT22;22470;50.824;16.284;2022-09-09T03:22:04;13.20;99.90
36442;DHT22;22470;50.824;16.284;2022-09-09T03:24:34;13.20;99.90
36442;DHT22;22470;50.824;16.284;2022-09-09T03:27:01;13.20;99.90
36442;DHT22;22470;50.824;16.284;2022-09-09T03:29:28;13.10;99.90
36442;DHT22;22470;50.824;16.284;2022-09-09T03:31:55;13.10;99.90
36442;DHT22;22470;50.824;16.284;2022-09-09T03:34:22;13.10;99.90
36442;DHT22;22470;50.824;16.284;2022-09-09T03:36:50;13.10;99.90
36442;DHT22;22470;50.824;16.284;2022-09-09T03:39:17;13.20;99.90
36442;DHT22;22470;50.824;16.284;2022-09-09T03:41:44;13.10;99.90
36442;DHT22;22470;50.824;16.284;2022-09-09T03:44:11;13.10;99.90
36442;DHT22;22470;50.824;16.284;2022-09-09T03:46:41;13.10;99.90
36442;DHT22;22470;50.824;16.284;2022-09-09T03:49:08;13.10;99.90
36442;DHT22;22470;50.824;16.284;2022-09-09T03:51:35;13.10;99.90
36442;DHT22;22470;50.824;16.284;2022-09-09T03:54:07;13.10;99.90
36442;DHT22;22470;50.824;16.284;2022-09-09T03:56:34;13.10;99.90
36442;DHT22;22470;50.824;16.284;2022-09-09T03:59:05;13.00;99.90
36442;DHT22;22470;50.824;16.284;2022-09-09T04:01:34;13.00;99.90
36442;DHT22;22470;50.824;16.284;2022-09-09T04:04:02;13.10;99.90
36442;DHT22;22470;50.824;16.284;2022-09-09T04:06:29;13.10;99.90
36442;DHT22;22470;50.824;16.284;2022-09-09T04:08:56;13.00;99.90
36442;DHT22;22470;50.824;16.284;2022-09-09T04:11:23;13.00;99.90
36442;DHT22;22470;50.824;16.284;2022-09-09T04:13:51;13.00;99.90
36442;DHT22;22470;50.824;16.284;2022-09-09T04:16:18;13.00;99.90
36442;DHT22;22470;50.824;16.284;2022-09-09T04:18:46;13.00;99.90
36442;DHT22;22470;50.824;16.284;2022-09-09T04:21:16;13.00;99.90
36442;DHT22;22470;50.824;16.284;2022-09-09T04:23:43;13.00;99.90
36442;DHT22;22470;50.824;16.284;2022-09-09T04:26:10;13.00;99.90
36442;DHT22;22470;50.824;16.284;2022-09-09T04:28:42;13.00;99.90
36442;DHT22;22470;50.824;16.284;2022-09-09T04:31:17;13.10;99.90
36442;DHT22;22470;50.824;16.284;2022-09-09T04:33:46;13.10;99.90
36442;DHT22;22470;50.824;16.284;2022-09-09T04:36:14;13.20;99.90
36442;DHT22;22470;50.824;16.284;2022-09-09T04:38:41;13.20;99.90
36442;DHT22;22470;50.824;16.284;2022-09-09T04:41:11;13.20;99.90
36442;DHT22;22470;50.824;16.284;2022-09-09T04:43:39;13.30;99.90
36442;DHT22;22470;50.824;16.284;2022-09-09T04:46:06;13.30;99.90
36442;DHT22;22470;50.824;16.284;2022-09-09T04:48:36;13.50;99.90
36442;DHT22;22470;50.824;16.284;2022-09-09T04:51:05;13.90;99.90
36442;DHT22;22470;50.824;16.284;2022-09-09T04:53:33;14.30;99.90
36442;DHT22;22470;50.824;16.284;2022-09-09T04:56:04;14.80;99.90
36442;DHT22;22470;50.824;16.284;2022-09-09T04:58:35;15.50;99.90
36442;DHT22;22470;50.824;16.284;2022-09-09T05:01:08;16.20;99.90
36442;DHT22;22470;50.824;16.284;2022-09-09T05:03:36;17.00;99.90
36442;DHT22;22470;50.824;16.284;2022-09-09T05:06:15;17.80;99.90
36442;DHT22;22470;50.824;16.284;2022-09-09T05:08:46;18.70;99.90
36442;DHT22;22470;50.824;16.284;2022-09-09T05:13:46;20.50;99.90
36442;DHT22;22470;50.824;16.284;2022-09-09T05:16:14;21.50;99.90
36442;DHT22;22470;50.824;16.284;2022-09-09T05:18:43;22.50;99.90
36442;DHT22;22470;50.824;16.284;2022-09-09T05:21:12;23.40;99.90
36442;DHT22;22470;50.824;16.284;2022-09-09T05:23:42;24.10;99.90
36442;DHT22;22470;50.824;16.284;2022-09-09T05:26:13;24.80;99.90
36442;DHT22;22470;50.824;16.284;2022-09-09T05:31:20;26.00;97.90
36442;DHT22;22470;50.824;16.284;2022-09-09T05:33:48;26.70;96.60
36442;DHT22;22470;50.824;16.284;2022-09-09T05:36:22;27.00;95.50
36442;DHT22;22470;50.824;16.284;2022-09-09T05:38:54;27.70;94.10
36442;DHT22;22470;50.824;16.284;2022-09-09T05:41:22;28.70;93.10
36442;DHT22;22470;50.824;16.284;2022-09-09T05:43:49;29.50;91.00
36442;DHT22;22470;50.824;16.284;2022-09-09T05:46:20;30.80;89.30
36442;DHT22;22470;50.824;16.284;2022-09-09T05:48:53;31.90;85.00
36442;DHT22;22470;50.824;16.284;2022-09-09T05:51:26;32.50;81.90
36442;DHT22;22470;50.824;16.284;2022-09-09T05:53:53;33.40;78.90
36442;DHT22;22470;50.824;16.284;2022-09-09T05:56:23;34.20;76.10
36442;DHT22;22470;50.824;16.284;2022-09-09T05:58:52;34.70;73.80
36442;DHT22;22470;50.824;16.284;2022-09-09T06:01:24;35.50;71.30
36442;DHT22;22470;50.824;16.284;2022-09-09T06:03:53;35.70;67.20
36442;DHT22;22470;50.824;16.284;2022-09-09T06:06:25;35.20;67.70
36442;DHT22;22470;50.824;16.284;2022-09-09T06:08:55;35.00;69.10
36442;DHT22;22470;50.824;16.284;2022-09-09T06:11:29;34.90;68.20
36442;DHT22;22470;50.824;16.284;2022-09-09T06:13:57;33.80;68.80
36442;DHT22;22470;50.824;16.284;2022-09-09T06:16:26;32.20;70.90
36442;DHT22;22470;50.824;16.284;2022-09-09T06:18:55;30.50;73.70
36442;DHT22;22470;50.824;16.284;2022-09-09T06:21:33;29.20;76.80
36442;DHT22;22470;50.824;16.284;2022-09-09T06:24:02;28.70;77.30
36442;DHT22;22470;50.824;16.284;2022-09-09T06:26:33;29.80;75.80
36442;DHT22;22470;50.824;16.284;2022-09-09T06:29:02;31.60;73.70
36442;DHT22;22470;50.824;16.284;2022-09-09T06:31:32;33.50;70.60
36442;DHT22;22470;50.824;16.284;2022-09-09T06:36:32;36.80;64.40
36442;DHT22;22470;50.824;16.284;2022-09-09T06:39:00;37.80;63.40
36442;DHT22;22470;50.824;16.284;2022-09-09T06:41:30;37.50;62.50
36442;DHT22;22470;50.824;16.284;2022-09-09T06:43:57;38.30;62.00
36442;DHT22;22470;50.824;16.284;2022-09-09T06:46:27;39.00;60.80
36442;DHT22;22470;50.824;16.284;2022-09-09T06:48:56;38.90;59.90
36442;DHT22;22470;50.824;16.284;2022-09-09T06:51:25;39.20;59.10
36442;DHT22;22470;50.824;16.284;2022-09-09T06:53:59;38.50;59.20
36442;DHT22;22470;50.824;16.284;2022-09-09T06:56:34;37.10;60.10
36442;DHT22;22470;50.824;16.284;2022-09-09T06:59:07;37.00;60.80
36442;DHT22;22470;50.824;16.284;2022-09-09T07:01:40;37.40;60.80
36442;DHT22;22470;50.824;16.284;2022-09-09T07:04:08;37.70;59.80
36442;DHT22;22470;50.824;16.284;2022-09-09T07:06:37;36.90;59.40
36442;DHT22;22470;50.824;16.284;2022-09-09T07:09:07;35.80;59.60
36442;DHT22;22470;50.824;16.284;2022-09-09T07:11:42;34.10;62.50
36442;DHT22;22470;50.824;16.284;2022-09-09T07:14:12;32.00;64.20
36442;DHT22;22470;50.824;16.284;2022-09-09T07:16:41;29.90;67.00
36442;DHT22;22470;50.824;16.284;2022-09-09T07:19:09;29.70;68.80
36442;DHT22;22470;50.824;16.284;2022-09-09T07:21:36;30.80;67.50
36442;DHT22;22470;50.824;16.284;2022-09-09T07:24:04;30.50;68.90
36442;DHT22;22470;50.824;16.284;2022-09-09T07:26:31;31.00;67.90
36442;DHT22;22470;50.824;16.284;2022-09-09T07:29:02;31.90;67.60
36442;DHT22;22470;50.824;16.284;2022-09-09T07:31:35;33.20;66.20
36442;DHT22;22470;50.824;16.284;2022-09-09T07:34:03;33.80;64.40
36442;DHT22;22470;50.824;16.284;2022-09-09T07:36:35;34.10;62.40
36442;DHT22;22470;50.824;16.284;2022-09-09T07:39:09;33.40;63.40
36442;DHT22;22470;50.824;16.284;2022-09-09T07:41:40;32.70;64.20
36442;DHT22;22470;50.824;16.284;2022-09-09T07:44:12;32.90;63.90
36442;DHT22;22470;50.824;16.284;2022-09-09T07:46:40;33.10;63.40
36442;DHT22;22470;50.824;16.284;2022-09-09T07:49:08;32.80;64.40
36442;DHT22;22470;50.824;16.284;2022-09-09T07:51:38;32.70;64.40
36442;DHT22;22470;50.824;16.284;2022-09-09T07:54:12;32.50;64.50
36442;DHT22;22470;50.824;16.284;2022-09-09T07:56:40;31.50;65.60
36442;DHT22;22470;50.824;16.284;2022-09-09T07:59:09;30.60;67.10
36442;DHT22;22470;50.824;16.284;2022-09-09T08:01:45;30.10;68.60
36442;DHT22;22470;50.824;16.284;2022-09-09T08:04:17;29.40;69.40
36442;DHT22;22470;50.824;16.284;2022-09-09T08:06:56;28.50;71.40
36442;DHT22;22470;50.824;16.284;2022-09-09T08:09:24;28.60;71.20
36442;DHT22;22470;50.824;16.284;2022-09-09T08:11:54;29.30;71.10
36442;DHT22;22470;50.824;16.284;2022-09-09T08:14:21;30.20;69.90
36442;DHT22;22470;50.824;16.284;2022-09-09T08:16:51;30.00;68.80
36442;DHT22;22470;50.824;16.284;2022-09-09T08:19:23;29.80;68.30
36442;DHT22;22470;50.824;16.284;2022-09-09T08:21:51;30.30;68.10
36442;DHT22;22470;50.824;16.284;2022-09-09T08:24:18;30.90;67.40
36442;DHT22;22470;50.824;16.284;2022-09-09T08:26:47;31.30;67.00
36442;DHT22;22470;50.824;16.284;2022-09-09T08:29:20;31.90;65.90
36442;DHT22;22470;50.824;16.284;2022-09-09T08:31:49;32.60;64.10
36442;DHT22;22470;50.824;16.284;2022-09-09T08:34:17;33.60;63.60
36442;DHT22;22470;50.824;16.284;2022-09-09T08:36:46;35.70;62.10
36442;DHT22;22470;50.824;16.284;2022-09-09T08:39:16;37.70;58.90
36442;DHT22;22470;50.824;16.284;2022-09-09T08:42:21;39.30;57.70
36442;DHT22;22470;50.824;16.284;2022-09-09T08:48:50;41.60;55.10
36442;DHT22;22470;50.824;16.284;2022-09-09T08:50:57;42.00;53.50
36442;DHT22;22470;50.824;16.284;2022-09-09T08:53:28;41.30;54.30
36442;DHT22;22470;50.824;16.284;2022-09-09T08:55:58;41.70;53.80
36442;DHT22;22470;50.824;16.284;2022-09-09T08:58:27;42.30;53.30
36442;DHT22;22470;50.824;16.284;2022-09-09T09:03:43;43.70;51.90
36442;DHT22;22470;50.824;16.284;2022-09-09T09:09:02;44.90;50.70
36442;DHT22;22470;50.824;16.284;2022-09-09T09:11:55;43.80;49.80
36442;DHT22;22470;50.824;16.284;2022-09-09T09:14:25;43.60;50.20
36442;DHT22;22470;50.824;16.284;2022-09-09T09:16:59;44.00;49.50
36442;DHT22;22470;50.824;16.284;2022-09-09T09:19:28;43.60;49.30
36442;DHT22;22470;50.824;16.284;2022-09-09T09:22:14;43.80;49.10
36442;DHT22;22470;50.824;16.284;2022-09-09T09:24:55;44.50;48.20
36442;DHT22;22470;50.824;16.284;2022-09-09T09:27:40;45.40;47.50
36442;DHT22;22470;50.824;16.284;2022-09-09T09:30:19;45.60;47.10
36442;DHT22;22470;50.824;16.284;2022-09-09T09:35:40;43.40;47.60
36442;DHT22;22470;50.824;16.284;2022-09-09T09:38:22;42.70;48.20
36442;DHT22;22470;50.824;16.284;2022-09-09T09:41:10;43.50;47.90
36442;DHT22;22470;50.824;16.284;2022-09-09T09:43:40;44.40;47.50
36442;DHT22;22470;50.824;16.284;2022-09-09T09:46:22;45.20;47.00
36442;DHT22;22470;50.824;16.284;2022-09-09T09:49:01;46.40;46.50
36442;DHT22;22470;50.824;16.284;2022-09-09T09:51:30;46.40;46.00
36442;DHT22;22470;50.824;16.284;2022-09-09T09:54:32;46.80;45.90
36442;DHT22;22470;50.824;16.284;2022-09-09T09:57:16;46.90;45.50
36442;DHT22;22470;50.824;16.284;2022-09-09T09:59:43;46.80;45.50
36442;DHT22;22470;50.824;16.284;2022-09-09T10:02:31;46.80;45.50
36442;DHT22;22470;50.824;16.284;2022-09-09T10:05:20;46.50;45.50
36442;DHT22;22470;50.824;16.284;2022-09-09T10:08:13;46.50;45.70
36442;DHT22;22470;50.824;16.284;2022-09-09T10:24:59;42.50;47.20
36442;DHT22;22470;50.824;16.284;2022-09-09T10:33:19;40.70;48.60
36442;DHT22;22470;50.824;16.284;2022-09-09T10:38:42;41.00;48.70
36442;DHT22;22470;50.824;16.284;2022-09-09T10:44:14;39.80;49.60
36442;DHT22;22470;50.824;16.284;2022-09-09T10:54:55;37.20;52.00
36442;DHT22;22470;50.824;16.284;2022-09-09T10:57:42;35.40;55.10
36442;DHT22;22470;50.824;16.284;2022-09-09T11:07:09;28.90;64.30
36442;DHT22;22470;50.824;16.284;2022-09-09T11:09:42;27.30;67.60
36442;DHT22;22470;50.824;16.284;2022-09-09T11:12:17;26.60;69.30
36442;DHT22;22470;50.824;16.284;2022-09-09T11:14:54;26.10;69.90
36442;DHT22;22470;50.824;16.284;2022-09-09T11:17:30;25.60;70.70
36442;DHT22;22470;50.824;16.284;2022-09-09T11:20:00;25.10;72.10
36442;DHT22;22470;50.824;16.284;2022-09-09T11:22:32;24.60;73.10
36442;DHT22;22470;50.824;16.284;2022-09-09T11:33:46;23.30;76.90
36442;DHT22;22470;50.824;16.284;2022-09-09T11:41:47;22.20;80.30
36442;DHT22;22470;50.824;16.284;2022-09-09T11:44:27;22.10;80.30
36442;DHT22;22470;50.824;16.284;2022-09-09T11:46:55;22.00;82.10
36442;DHT22;22470;50.824;16.284;2022-09-09T11:49:28;21.80;83.10
36442;DHT22;22470;50.824;16.284;2022-09-09T11:51:56;21.60;82.10
36442;DHT22;22470;50.824;16.284;2022-09-09T11:54:32;21.50;84.40
36442;DHT22;22470;50.824;16.284;2022-09-09T11:57:04;21.30;82.40
36442;DHT22;22470;50.824;16.284;2022-09-09T12:02:28;21.20;84.20
36442;DHT22;22470;50.824;16.284;2022-09-09T12:05:05;21.00;84.20
36442;DHT22;22470;50.824;16.284;2022-09-09T12:10:52;21.00;84.60
36442;DHT22;22470;50.824;16.284;2022-09-09T12:13:21;21.00;84.00
36442;DHT22;22470;50.824;16.284;2022-09-09T12:15:50;20.90;83.60
36442;DHT22;22470;50.824;16.284;2022-09-09T12:18:38;20.90;86.70
36442;DHT22;22470;50.824;16.284;2022-09-09T12:24:09;21.00;86.20
36442;DHT22;22470;50.824;16.284;2022-09-09T12:26:44;21.10;85.20
36442;DHT22;22470;50.824;16.284;2022-09-09T12:32:22;21.40;84.70
36442;DHT22;22470;50.824;16.284;2022-09-09T12:34:55;21.50;85.00
36442;DHT22;22470;50.824;16.284;2022-09-09T12:42:47;21.60;81.70
36442;DHT22;22470;50.824;16.284;2022-09-09T12:45:23;21.60;80.80
36442;DHT22;22470;50.824;16.284;2022-09-09T12:50:31;21.60;83.00
36442;DHT22;22470;50.824;16.284;2022-09-09T12:53:08;21.60;83.90
36442;DHT22;22470;50.824;16.284;2022-09-09T12:55:38;21.70;83.40
36442;DHT22;22470;50.824;16.284;2022-09-09T12:58:06;21.70;83.60
36442;DHT22;22470;50.824;16.284;2022-09-09T13:00:34;21.80;82.90
36442;DHT22;22470;50.824;16.284;2022-09-09T13:03:14;21.90;82.40
36442;DHT22;22470;50.824;16.284;2022-09-09T13:05:43;21.90;83.20
36442;DHT22;22470;50.824;16.284;2022-09-09T13:08:12;21.90;83.60
36442;DHT22;22470;50.824;16.284;2022-09-09T13:10:54;21.90;82.20
36442;DHT22;22470;50.824;16.284;2022-09-09T13:13:38;21.90;84.40
36442;DHT22;22470;50.824;16.284;2022-09-09T13:16:19;21.90;83.50
36442;DHT22;22470;50.824;16.284;2022-09-09T13:18:52;21.90;83.40
36442;DHT22;22470;50.824;16.284;2022-09-09T13:21:19;22.00;84.30
36442;DHT22;22470;50.824;16.284;2022-09-09T13:23:57;22.00;83.50
36442;DHT22;22470;50.824;16.284;2022-09-09T13:26:26;22.00;83.20
36442;DHT22;22470;50.824;16.284;2022-09-09T13:28:54;22.10;83.20
36442;DHT22;22470;50.824;16.284;2022-09-09T13:31:33;22.10;82.30
36442;DHT22;22470;50.824;16.284;2022-09-09T13:34:11;22.10;81.50
36442;DHT22;22470;50.824;16.284;2022-09-09T13:36:39;22.00;82.30
36442;DHT22;22470;50.824;16.284;2022-09-09T13:39:18;21.90;81.60
36442;DHT22;22470;50.824;16.284;2022-09-09T13:41:46;21.90;82.00
36442;DHT22;22470;50.824;16.284;2022-09-09T13:44:26;21.90;83.00
36442;DHT22;22470;50.824;16.284;2022-09-09T13:47:17;21.90;82.40
36442;DHT22;22470;50.824;16.284;2022-09-09T13:49:44;21.90;82.50
36442;DHT22;22470;50.824;16.284;2022-09-09T13:52:14;21.80;84.00
36442;DHT22;22470;50.824;16.284;2022-09-09T13:54:46;21.70;83.30
36442;DHT22;22470;50.824;16.284;2022-09-09T13:57:17;21.70;84.60
36442;DHT22;22470;50.824;16.284;2022-09-09T13:59:45;21.60;84.20
36442;DHT22;22470;50.824;16.284;2022-09-09T14:02:32;21.50;85.40
36442;DHT22;22470;50.824;16.284;2022-09-09T14:05:00;21.50;84.90
36442;DHT22;22470;50.824;16.284;2022-09-09T14:07:27;21.50;85.30
36442;DHT22;22470;50.824;16.284;2022-09-09T14:09:55;21.50;84.10
36442;DHT22;22470;50.824;16.284;2022-09-09T14:12:22;21.50;86.00
36442;DHT22;22470;50.824;16.284;2022-09-09T14:14:59;21.50;86.60
36442;DHT22;22470;50.824;16.284;2022-09-09T14:17:26;21.50;84.80
36442;DHT22;22470;50.824;16.284;2022-09-09T14:19:54;21.40;84.20
36442;DHT22;22470;50.824;16.284;2022-09-09T14:22:22;21.40;84.10
36442;DHT22;22470;50.824;16.284;2022-09-09T14:24:49;21.40;84.10
36442;DHT22;22470;50.824;16.284;2022-09-09T14:27:19;21.30;85.00
36442;DHT22;22470;50.824;16.284;2022-09-09T14:29:51;21.30;84.80
36442;DHT22;22470;50.824;16.284;2022-09-09T14:32:20;21.30;86.60
36442;DHT22;22470;50.824;16.284;2022-09-09T14:34:48;21.30;86.90
36442;DHT22;22470;50.824;16.284;2022-09-09T14:37:16;21.30;86.10
36442;DHT22;22470;50.824;16.284;2022-09-09T14:39:44;21.30;85.30
36442;DHT22;22470;50.824;16.284;2022-09-09T14:42:11;21.20;85.80
36442;DHT22;22470;50.824;16.284;2022-09-09T14:44:38;21.20;87.70
36442;DHT22;22470;50.824;16.284;2022-09-09T14:47:06;21.10;86.70
36442;DHT22;22470;50.824;16.284;2022-09-09T14:49:35;21.20;87.70
36442;DHT22;22470;50.824;16.284;2022-09-09T14:52:04;21.20;89.00
36442;DHT22;22470;50.824;16.284;2022-09-09T14:54:33;21.20;88.20
36442;DHT22;22470;50.824;16.284;2022-09-09T14:57:01;21.10;89.60
36442;DHT22;22470;50.824;16.284;2022-09-09T14:59:28;21.00;90.10
36442;DHT22;22470;50.824;16.284;2022-09-09T15:01:55;21.00;90.00
36442;DHT22;22470;50.824;16.284;2022-09-09T15:04:22;21.00;90.40
36442;DHT22;22470;50.824;16.284;2022-09-09T15:06:50;20.90;91.00
36442;DHT22;22470;50.824;16.284;2022-09-09T15:09:17;20.90;91.20
36442;DHT22;22470;50.824;16.284;2022-09-09T15:11:44;20.90;91.10
36442;DHT22;22470;50.824;16.284;2022-09-09T15:14:17;20.90;91.60
36442;DHT22;22470;50.824;16.284;2022-09-09T15:16:51;20.90;91.90
36442;DHT22;22470;50.824;16.284;2022-09-09T15:19:18;20.80;92.00
36442;DHT22;22470;50.824;16.284;2022-09-09T15:21:49;20.70;92.00
36442;DHT22;22470;50.824;16.284;2022-09-09T15:24:18;20.70;92.00
36442;DHT22;22470;50.824;16.284;2022-09-09T15:26:46;20.60;92.40
36442;DHT22;22470;50.824;16.284;2022-09-09T15:29:13;20.60;92.60
36442;DHT22;22470;50.824;16.284;2022-09-09T15:31:43;20.50;93.30
36442;DHT22;22470;50.824;16.284;2022-09-09T15:34:12;20.40;93.10
36442;DHT22;22470;50.824;16.284;2022-09-09T15:36:41;20.40;93.20
36442;DHT22;22470;50.824;16.284;2022-09-09T15:39:12;20.40;93.30
36442;DHT22;22470;50.824;16.284;2022-09-09T15:41:40;20.30;93.70
36442;DHT22;22470;50.824;16.284;2022-09-09T15:44:07;20.30;93.80
36442;DHT22;22470;50.824;16.284;2022-09-09T15:49:25;20.20;94.30
36442;DHT22;22470;50.824;16.284;2022-09-09T15:51:54;20.20;94.60
36442;DHT22;22470;50.824;16.284;2022-09-09T15:54:23;20.20;94.60
36442;DHT22;22470;50.824;16.284;2022-09-09T15:56:56;20.10;94.70
36442;DHT22;22470;50.824;16.284;2022-09-09T15:59:26;20.10;94.70
36442;DHT22;22470;50.824;16.284;2022-09-09T16:01:55;20.10;94.90
36442;DHT22;22470;50.824;16.284;2022-09-09T16:04:26;20.10;95.10
36442;DHT22;22470;50.824;16.284;2022-09-09T16:07:05;20.10;95.40
36442;DHT22;22470;50.824;16.284;2022-09-09T16:09:35;20.10;95.70
36442;DHT22;22470;50.824;16.284;2022-09-09T16:12:05;20.00;96.00
36442;DHT22;22470;50.824;16.284;2022-09-09T16:14:33;20.00;96.30
36442;DHT22;22470;50.824;16.284;2022-09-09T16:17:00;20.00;96.60
36442;DHT22;22470;50.824;16.284;2022-09-09T16:19:28;20.00;96.80
36442;DHT22;22470;50.824;16.284;2022-09-09T16:21:58;20.00;96.90
36442;DHT22;22470;50.824;16.284;2022-09-09T16:24:25;20.00;96.90
36442;DHT22;22470;50.824;16.284;2022-09-09T16:26:54;20.00;96.70
36442;DHT22;22470;50.824;16.284;2022-09-09T16:29:22;19.90;97.30
36442;DHT22;22470;50.824;16.284;2022-09-09T16:31:49;19.80;97.50
36442;DHT22;22470;50.824;16.284;2022-09-09T17:43:27;19.30;99.90
36442;DHT22;22470;50.824;16.284;2022-09-09T17:45:54;19.30;99.90
36442;DHT22;22470;50.824;16.284;2022-09-09T17:48:21;19.30;99.90
36442;DHT22;22470;50.824;16.284;2022-09-09T17:50:57;19.30;99.90
36442;DHT22;22470;50.824;16.284;2022-09-09T17:53:27;19.30;99.90
36442;DHT22;22470;50.824;16.284;2022-09-09T17:55:57;19.30;99.90
36442;DHT22;22470;50.824;16.284;2022-09-09T17:58:27;19.30;99.90
36442;DHT22;22470;50.824;16.284;2022-09-09T18:00:55;19.20;99.90
36442;DHT22;22470;50.824;16.284;2022-09-09T18:03:22;19.20;99.90
36442;DHT22;22470;50.824;16.284;2022-09-09T18:05:49;19.20;99.90
36442;DHT22;22470;50.824;16.284;2022-09-09T18:08:17;19.30;99.90
36442;DHT22;22470;50.824;16.284;2022-09-09T18:10:51;19.20;99.90
36442;DHT22;22470;50.824;16.284;2022-09-09T18:13:22;19.20;99.90
36442;DHT22;22470;50.824;16.284;2022-09-09T18:15:49;19.20;99.90
36442;DHT22;22470;50.824;16.284;2022-09-09T18:18:19;19.20;99.90
36442;DHT22;22470;50.824;16.284;2022-09-09T18:20:56;19.10;99.90
36442;DHT22;22470;50.824;16.284;2022-09-09T18:23:23;19.10;99.90
36442;DHT22;22470;50.824;16.284;2022-09-09T18:25:52;19.10;99.90
36442;DHT22;22470;50.824;16.284;2022-09-09T18:28:25;19.10;99.90
36442;DHT22;22470;50.824;16.284;2022-09-09T18:30:53;19.10;99.90
36442;DHT22;22470;50.824;16.284;2022-09-09T18:33:23;19.10;99.90
36442;DHT22;22470;50.824;16.284;2022-09-09T18:35:50;19.10;99.90
36442;DHT22;22470;50.824;16.284;2022-09-09T18:38:18;19.10;99.90
36442;DHT22;22470;50.824;16.284;2022-09-09T18:40:45;19.10;99.90
36442;DHT22;22470;50.824;16.284;2022-09-09T18:43:12;19.00;99.90
36442;DHT22;22470;50.824;16.284;2022-09-09T18:45:39;18.90;99.90
36442;DHT22;22470;50.824;16.284;2022-09-09T18:48:07;18.70;99.90
36442;DHT22;22470;50.824;16.284;2022-09-09T18:50:34;18.40;99.90
36442;DHT22;22470;50.824;16.284;2022-09-09T18:53:01;18.20;99.90
36442;DHT22;22470;50.824;16.284;2022-09-09T18:55:29;17.90;99.90
36442;DHT22;22470;50.824;16.284;2022-09-09T18:57:56;17.60;99.90
36442;DHT22;22470;50.824;16.284;2022-09-09T19:00:24;17.20;99.90
36442;DHT22;22470;50.824;16.284;2022-09-09T19:02:51;16.90;99.90
36442;DHT22;22470;50.824;16.284;2022-09-09T19:05:19;16.80;99.90
36442;DHT22;22470;50.824;16.284;2022-09-09T19:07:50;16.70;99.90
36442;DHT22;22470;50.824;16.284;2022-09-09T19:10:22;16.60;99.90
36442;DHT22;22470;50.824;16.284;2022-09-09T19:12:49;16.70;99.90
36442;DHT22;22470;50.824;16.284;2022-09-09T19:15:17;16.70;99.90
36442;DHT22;22470;50.824;16.284;2022-09-09T19:17:44;16.70;99.90
36442;DHT22;22470;50.824;16.284;2022-09-09T19:20:11;16.70;99.90
36442;DHT22;22470;50.824;16.284;2022-09-09T19:22:39;16.60;99.90